Time;durP1;ratioP1;P1;durP2;ratioP2;P2;SDS_P1;SDS_P2;PMS_P1;PMS_P2;Temp;Humidity;BMP_temperature;BMP_pressure;BME280_temperature;BME280_humidity;BME280_pressure;Samples;Min_cycle;Max_cycle;Signal;HPM_P1;HPM_P2
2022/08/25 00:00:04;;;;;;;12.53;6.60;;;;;;;24.89;56.38;100924.38;5066601;28;20380;-60
2022/08/25 00:02:29;;;;;;;12.87;6.77;;;;;;;24.89;56.51;100917.06;5066823;28;20380;-61
2022/08/25 00:04:55;;;;;;;9.88;6.72;;;;;;;24.88;56.58;100920.84;5066768;28;20473;-62
2022/08/25 00:09:31;;;;;;;13.65;7.00;;;;;;;24.87;56.56;100908.38;5066177;28;20925;-59
2022/08/25 00:11:57;;;;;;;11.38;6.57;;;;;;;24.87;56.64;100907.56;5067157;28;20418;-60
2022/08/25 00:14:33;;;;;;;11.40;7.30;;;;;;;24.87;56.54;100908.38;5067122;28;20941;-60
2022/08/25 00:16:59;;;;;;;11.48;7.18;;;;;;;24.85;56.60;100909.69;5067113;28;20502;-60
2022/08/25 00:19:30;;;;;;;12.38;6.53;;;;;;;24.84;56.42;100900.75;5066970;28;20480;-60
2022/08/25 00:21:57;;;;;;;11.82;7.35;;;;;;;24.82;56.79;100905.63;5066889;28;20388;-60
2022/08/25 00:24:23;;;;;;;12.50;6.75;;;;;;;24.84;56.54;100917.00;5066969;28;20438;-60
2022/08/25 00:27:17;;;;;;;10.38;6.80;;;;;;;24.84;56.54;100916.22;5094738;27;2077077;-60
2022/08/25 00:29:43;;;;;;;10.70;7.03;;;;;;;24.82;56.57;100921.88;5148540;27;20397;-60
2022/08/25 00:32:08;;;;;;;10.35;7.00;;;;;;;24.80;56.64;100921.34;5148571;27;20878;-59
2022/08/25 00:34:36;;;;;;;11.70;6.97;;;;;;;24.80;56.71;100922.16;5148769;27;20380;-60
2022/08/25 00:37:06;;;;;;;9.93;6.83;;;;;;;24.77;56.85;100922.66;5148662;27;20400;-60
2022/08/25 00:39:31;;;;;;;8.80;6.75;;;;;;;24.79;56.78;100917.81;5148285;27;20377;-60
2022/08/25 00:41:57;;;;;;;9.07;6.83;;;;;;;24.80;56.76;100919.44;5148362;27;20384;-60
2022/08/25 00:44:24;;;;;;;13.32;6.90;;;;;;;24.78;56.90;100913.47;5148851;27;20452;-60
2022/08/25 00:46:53;;;;;;;13.32;6.90;;;;;;;24.82;56.79;100910.22;5148468;27;20409;-60
2022/08/25 00:49:27;;;;;;;11.50;6.80;;;;;;;24.76;56.78;100910.19;5148434;27;20381;-59
2022/08/25 00:52:08;;;;;;;12.63;7.38;;;;;;;24.77;56.97;100900.97;5148251;27;20385;-60
2022/08/25 00:55:01;;;;;;;9.98;7.07;;;;;;;24.72;57.04;100895.53;5148355;27;20381;-61
2022/08/25 00:57:35;;;;;;;11.60;7.20;;;;;;;24.69;57.20;100897.94;5137856;27;20416;-59
2022/08/25 01:00:09;;;;;;;10.93;7.00;;;;;;;24.65;57.29;100907.66;5148509;27;20384;-60
2022/08/25 01:02:35;;;;;;;11.50;7.13;;;;;;;24.65;57.59;100904.94;5148110;27;20373;-60
2022/08/25 01:05:01;;;;;;;9.93;7.05;;;;;;;24.67;57.71;100913.63;5148079;27;20408;-60
2022/08/25 01:07:27;;;;;;;12.18;7.20;;;;;;;24.61;57.70;100904.66;5147827;27;20373;-59
2022/08/25 01:09:53;;;;;;;9.63;7.20;;;;;;;24.63;57.87;100907.09;5148003;27;20425;-60
2022/08/25 01:12:19;;;;;;;9.40;6.90;;;;;;;24.57;58.01;100903.53;5148061;27;20381;-60
2022/08/25 01:14:45;;;;;;;11.02;7.30;;;;;;;24.59;58.15;100909.50;5147967;27;20459;-59
2022/08/25 01:17:12;;;;;;;11.30;7.15;;;;;;;24.58;58.08;100905.19;5147605;27;20515;-60
2022/08/25 01:19:37;;;;;;;13.80;7.53;;;;;;;24.57;57.79;100898.91;5147870;27;20380;-60
2022/08/25 01:22:04;;;;;;;14.73;8.20;;;;;;;24.51;57.83;100904.56;5147812;27;20739;-59
2022/08/25 01:24:55;;;;;;;12.95;8.00;;;;;;;24.41;58.25;100900.66;5147948;27;20406;-60
2022/08/25 01:27:20;;;;;;;16.52;8.13;;;;;;;24.38;58.42;100903.91;5147202;27;20409;-59
2022/08/25 01:29:46;;;;;;;12.03;7.43;;;;;;;24.33;58.50;100909.28;5147752;27;20746;-60
2022/08/25 01:32:13;;;;;;;13.13;7.57;;;;;;;24.29;58.36;100899.19;5147656;27;20404;-59
2022/08/25 01:34:42;;;;;;;13.23;7.05;;;;;;;24.31;58.41;100899.75;5147250;27;20431;-60
2022/08/25 01:37:09;;;;;;;11.13;7.40;;;;;;;24.28;58.36;100903.81;5142684;27;20579;-60
2022/08/25 01:39:35;;;;;;;15.57;7.50;;;;;;;24.28;58.36;100906.50;5133430;27;20378;-60
2022/08/25 01:42:18;;;;;;;12.95;7.07;;;;;;;24.25;58.20;100901.59;5133580;27;20378;-60
2022/08/25 01:44:45;;;;;;;11.32;7.03;;;;;;;24.17;58.49;100896.66;5133699;27;20894;-60
2022/08/25 01:47:12;;;;;;;10.43;7.20;;;;;;;24.20;58.59;100898.84;5133467;27;20516;-60
2022/08/25 01:49:37;;;;;;;11.27;7.10;;;;;;;24.14;58.57;100895.25;5133519;27;20423;-60
2022/08/25 01:52:06;;;;;;;12.17;7.67;;;;;;;24.12;58.63;100893.91;5133163;27;20373;-59
2022/08/25 01:54:31;;;;;;;12.48;6.93;;;;;;;24.15;58.48;100898.81;5133752;27;20951;-59
2022/08/25 01:56:58;;;;;;;10.65;6.88;;;;;;;24.11;58.38;100895.81;5133399;27;20470;-60
2022/08/25 01:59:25;;;;;;;12.48;6.93;;;;;;;24.09;58.63;100900.63;5133075;27;20770;-59
2022/08/25 02:01:51;;;;;;;9.25;6.57;;;;;;;24.07;58.49;100891.94;5133314;27;20817;-59
2022/08/25 02:04:17;;;;;;;11.68;7.07;;;;;;;24.05;58.45;100894.91;5133204;27;20385;-60
2022/08/25 02:06:43;;;;;;;13.70;7.10;;;;;;;24.01;58.46;100885.66;5133047;27;21014;-60
2022/08/25 02:09:13;;;;;;;10.17;6.60;;;;;;;24.04;58.63;100889.78;5133120;27;20377;-60
2022/08/25 02:11:41;;;;;;;11.75;6.90;;;;;;;24.01;58.54;100891.09;5133153;27;20421;-60
2022/08/25 02:14:08;;;;;;;9.57;6.80;;;;;;;23.98;58.62;100888.06;5132636;27;20945;-60
2022/08/25 02:16:35;;;;;;;10.73;6.32;;;;;;;23.99;58.54;100892.44;5132699;27;20386;-59
2022/08/25 02:19:03;;;;;;;14.77;7.07;;;;;;;23.94;58.36;100885.06;5132944;27;20453;-60
2022/08/25 02:21:28;;;;;;;12.50;7.15;;;;;;;23.92;58.60;100880.97;5132942;27;20382;-60
2022/08/25 02:23:55;;;;;;;11.00;7.73;;;;;;;23.90;58.41;100875.00;5132545;27;20381;-59
2022/08/25 02:26:21;;;;;;;9.57;7.00;;;;;;;23.89;58.65;100879.59;5132882;27;20442;-61
2022/08/25 02:28:49;;;;;;;11.20;6.82;;;;;;;23.83;58.69;100877.91;5132763;27;20378;-62
2022/08/25 02:31:16;;;;;;;12.82;7.10;;;;;;;23.84;58.73;100880.38;5132745;27;20774;-60
2022/08/25 02:33:42;;;;;;;16.05;7.47;;;;;;;23.83;58.80;100872.50;5132687;27;20725;-59
2022/08/25 02:36:09;;;;;;;14.53;7.63;;;;;;;23.80;58.57;100864.88;5132527;27;20446;-60
2022/08/25 02:38:35;;;;;;;12.50;7.30;;;;;;;23.79;58.82;100877.56;5132611;27;20381;-59
2022/08/25 02:41:11;;;;;;;11.30;6.95;;;;;;;23.79;58.78;100864.03;5132259;27;20891;-59
2022/08/25 02:43:37;;;;;;;10.40;7.03;;;;;;;23.84;58.67;100864.13;5132298;27;20410;-60
2022/08/25 02:46:03;;;;;;;13.33;7.33;;;;;;;23.82;58.62;100862.72;5132307;27;20401;-60
2022/08/25 02:48:29;;;;;;;13.23;7.20;;;;;;;23.81;58.74;100867.31;5113235;28;20752;-60
2022/08/25 02:50:59;;;;;;;13.50;7.53;;;;;;;23.77;58.94;100860.75;5131622;27;20370;-59
2022/08/25 02:53:25;;;;;;;9.65;7.13;;;;;;;23.76;58.90;100863.72;5131860;27;20381;-60
2022/08/25 02:55:51;;;;;;;15.13;7.40;;;;;;;23.70;58.80;100852.03;5132189;27;20887;-60
2022/08/25 02:58:16;;;;;;;14.40;7.90;;;;;;;23.77;59.02;100851.81;5131805;27;20399;-58
2022/08/25 03:00:42;;;;;;;12.10;7.63;;;;;;;23.75;58.87;100854.78;5131811;27;20422;-59
2022/08/25 03:03:08;;;;;;;17.50;7.43;;;;;;;23.74;58.97;100850.44;5131642;27;20398;-59
2022/08/25 03:05:33;;;;;;;13.03;7.87;;;;;;;23.78;59.08;100858.88;5131822;27;20402;-59
2022/08/25 03:07:59;;;;;;;12.00;7.43;;;;;;;23.75;58.66;100854.78;5131633;27;20725;-60
2022/08/25 03:10:25;;;;;;;11.32;7.40;;;;;;;23.77;58.75;100871.59;5131622;27;20370;-60
2022/08/25 03:12:50;;;;;;;12.70;7.50;;;;;;;23.74;58.77;100869.38;5131535;27;20454;-58
2022/08/25 03:15:17;;;;;;;15.20;7.30;;;;;;;23.76;58.72;100869.94;5131570;27;20423;-60
2022/08/25 03:17:44;;;;;;;12.40;7.13;;;;;;;23.72;58.74;100868.03;5131694;27;20470;-59
2022/08/25 03:20:10;;;;;;;10.70;7.23;;;;;;;23.72;58.44;100868.03;5113605;27;20457;-59
2022/08/25 03:22:35;;;;;;;12.82;7.60;;;;;;;23.68;58.69;100870.41;5131430;27;20541;-58
2022/08/25 03:28:55;;;;;;;13.13;8.15;;;;;;;23.65;58.88;100865.50;5051552;28;20408;-60
2022/08/25 03:31:24;;;;;;;11.70;7.47;;;;;;;23.60;58.93;100862.72;5047060;28;20858;-60
2022/08/25 03:33:50;;;;;;;10.33;7.60;;;;;;;23.60;58.88;100863.53;5047095;28;20377;-60
2022/08/25 03:36:15;;;;;;;12.98;7.35;;;;;;;23.61;58.91;100875.19;5047015;28;20381;-60
2022/08/25 03:38:41;;;;;;;15.40;7.97;;;;;;;23.61;58.88;100867.09;5047019;28;20509;-60
2022/08/25 03:41:16;;;;;;;15.32;7.68;;;;;;;23.64;58.86;100872.81;5046680;28;20386;-60
2022/08/25 03:43:42;;;;;;;11.70;7.07;;;;;;;23.62;58.83;100863.28;5046779;28;20408;-60
2022/08/25 03:46:07;;;;;;;12.07;7.15;;;;;;;23.63;58.65;100867.66;5046531;28;20393;-60
2022/08/25 03:48:33;;;;;;;16.73;7.90;;;;;;;23.65;58.52;100868.19;5046773;28;20377;-60
2022/08/25 03:50:59;;;;;;;11.77;7.50;;;;;;;23.65;58.73;100873.63;5046954;28;20394;-60
2022/08/25 03:53:24;;;;;;;12.30;7.77;;;;;;;23.67;58.57;100872.28;5046304;28;20385;-60
2022/08/25 03:55:50;;;;;;;11.48;7.25;;;;;;;23.66;58.59;100878.78;5046259;28;20386;-60
2022/08/25 03:58:16;;;;;;;13.97;7.40;;;;;;;23.65;58.54;100877.13;5046055;28;20394;-59
2022/08/25 04:00:43;;;;;;;16.50;7.80;;;;;;;23.67;58.52;100872.28;5059538;28;20483;-59
2022/08/25 04:04:43;;;;;;;11.80;7.40;;;;;;;23.78;58.46;100877.81;5074657;28;20411;-60
2022/08/25 04:07:08;;;;;;;13.33;7.03;;;;;;;23.83;58.39;100878.72;5067118;28;20407;-60
2022/08/25 04:09:34;;;;;;;12.70;7.45;;;;;;;23.88;58.05;100877.13;5066945;28;20384;-59
2022/08/25 04:12:00;;;;;;;15.50;7.43;;;;;;;23.99;57.72;100884.31;5066965;28;20380;-60
2022/08/25 04:14:25;;;;;;;12.07;7.47;;;;;;;24.04;57.49;100877.03;5067147;28;20414;-57
2022/08/25 04:16:51;;;;;;;11.83;6.80;;;;;;;24.11;57.33;100882.25;5066621;28;20466;-60
2022/08/25 04:19:19;;;;;;;12.23;6.75;;;;;;;24.22;56.83;100883.16;5067019;28;20415;-60
2022/08/25 04:21:45;;;;;;;13.80;6.90;;;;;;;24.32;56.61;100885.13;5066805;28;20517;-60
2022/08/25 04:24:12;;;;;;;10.25;6.93;;;;;;;24.45;56.14;100890.13;5066626;28;20485;-58
2022/08/25 04:26:46;;;;;;;11.50;7.13;;;;;;;24.59;55.91;100882.41;5066055;28;20406;-59
2022/08/25 04:29:15;;;;;;;13.73;8.07;;;;;;;24.70;55.53;100875.97;5066542;28;20419;-60
2022/08/25 04:31:45;;;;;;;15.10;7.63;;;;;;;24.93;55.08;100882.09;5065727;28;20483;-59
2022/08/25 04:35:23;;;;;;;16.08;8.88;;;;;;;25.16;54.27;100883.59;5065943;28;20463;-60
2022/08/25 04:37:49;;;;;;;11.82;7.97;;;;;;;25.34;53.95;100882.34;5049587;28;20398;-60
2022/08/25 04:40:16;;;;;;;11.43;7.17;;;;;;;25.44;53.46;100879.66;5046813;28;20381;-60
2022/08/25 04:42:43;;;;;;;12.40;7.57;;;;;;;25.69;53.22;100886.25;5047831;28;20377;-60
2022/08/25 04:45:09;;;;;;;19.10;7.75;;;;;;;25.88;52.78;100883.88;5046974;28;20431;-60
2022/08/25 04:47:37;;;;;;;18.90;8.38;;;;;;;26.13;52.33;100885.84;5046893;28;20389;-60
2022/08/25 04:50:04;;;;;;;11.77;7.30;;;;;;;26.34;51.39;100878.50;5046780;28;20384;-60
2022/08/25 04:52:29;;;;;;;13.50;8.02;;;;;;;26.62;50.73;100882.63;5046823;28;20931;-60
2022/08/25 04:54:55;;;;;;;17.50;7.80;;;;;;;26.92;49.75;100888.28;5046467;28;20504;-61
2022/08/25 04:57:20;;;;;;;15.93;7.50;;;;;;;27.24;49.27;100879.75;5046457;28;20396;-60
2022/08/25 04:59:46;;;;;;;11.35;7.70;;;;;;;27.53;48.53;100877.22;5046366;28;20887;-60
2022/08/25 05:02:11;;;;;;;10.10;7.00;;;;;;;27.85;47.94;100882.19;5046670;28;20749;-61
2022/08/25 05:04:37;;;;;;;13.83;6.90;;;;;;;28.02;47.21;100875.59;5046376;28;20405;-60
2022/08/25 05:07:03;;;;;;;13.53;7.40;;;;;;;28.26;46.71;100874.88;5046581;28;20385;-60
2022/08/25 05:09:29;;;;;;;15.30;6.80;;;;;;;28.41;46.14;100881.03;5046501;28;20421;-60
2022/08/25 05:11:54;;;;;;;12.90;7.20;;;;;;;28.82;45.54;100888.03;5046501;28;20432;-61
2022/08/25 05:14:21;;;;;;;10.93;6.80;;;;;;;29.42;44.19;100890.34;5046059;28;20467;-61
2022/08/25 05:16:47;;;;;;;14.73;7.13;;;;;;;29.92;42.90;100879.84;5046376;28;20390;-60
2022/08/25 05:19:13;;;;;;;12.37;7.10;;;;;;;30.88;41.30;100875.81;5046316;28;20915;-61
2022/08/25 05:21:56;;;;;;;12.95;7.03;;;;;;;32.27;38.42;100878.34;5066089;28;20408;-60
2022/08/25 05:24:22;;;;;;;12.57;6.70;;;;;;;33.26;36.51;100875.44;5066996;28;20454;-61
2022/08/25 05:26:48;;;;;;;13.37;6.33;;;;;;;34.20;34.49;100872.28;5047350;28;20875;-61
2022/08/25 05:29:14;;;;;;;12.75;7.10;;;;;;;34.98;33.62;100875.94;5046840;28;20436;-61
2022/08/25 05:31:41;;;;;;;10.23;6.28;;;;;;;35.66;32.16;100873.09;5046913;28;20378;-60
2022/08/25 05:34:07;;;;;;;13.13;6.55;;;;;;;36.37;31.18;100868.56;5046971;28;20382;-61
2022/08/25 05:36:33;;;;;;;11.23;6.10;;;;;;;36.95;30.30;100867.72;5046394;28;20388;-61
2022/08/25 05:38:59;;;;;;;11.43;5.93;;;;;;;37.67;29.16;100871.59;5045836;28;20896;-60
2022/08/25 05:41:27;;;;;;;12.98;6.30;;;;;;;38.28;28.33;100866.94;5046112;28;20422;-62
2022/08/25 05:43:53;;;;;;;10.13;6.32;;;;;;;39.08;27.17;100865.00;5045582;28;20377;-58
2022/08/25 05:46:20;;;;;;;12.85;6.50;;;;;;;39.79;26.00;100864.13;5046063;28;20905;-61
2022/08/25 05:48:47;;;;;;;9.70;6.38;;;;;;;40.43;25.22;100864.59;5045371;28;20439;-59
2022/08/25 05:51:13;;;;;;;9.07;5.95;;;;;;;40.87;24.48;100866.88;5046049;28;20382;-60
2022/08/25 05:53:42;;;;;;;12.85;6.03;;;;;;;41.33;23.94;100860.41;5046474;28;20461;-59
2022/08/25 05:56:08;;;;;;;11.40;5.93;;;;;;;41.97;23.25;100861.19;5046555;28;20811;-59
2022/08/25 05:58:35;;;;;;;11.07;5.80;;;;;;;42.29;22.82;100859.94;5046236;28;20396;-59
2022/08/25 06:02:39;;;;;;;10.45;5.57;;;;;;;42.96;22.02;100851.31;5045962;28;20948;-60
2022/08/25 06:03:47;;;;;;;8.68;5.10;;;;;;;43.45;21.37;100854.78;5046061;28;20888;-59
2022/08/25 06:06:14;;;;;;;11.13;5.55;;;;;;;43.99;21.18;100857.75;5046394;28;20812;-60
2022/08/25 06:08:40;;;;;;;9.73;5.70;;;;;;;44.34;20.83;100852.66;5046367;28;20485;-60
2022/08/25 06:11:06;;;;;;;11.00;5.50;;;;;;;44.78;19.93;100852.22;5046302;28;20771;-61
2022/08/25 06:13:32;;;;;;;9.70;5.93;;;;;;;45.33;19.33;100853.72;5045304;28;20394;-60
2022/08/25 06:15:59;;;;;;;11.27;6.35;;;;;;;45.78;18.93;100837.09;5044746;28;20447;-59
2022/08/25 06:18:25;;;;;;;17.15;7.13;;;;;;;46.25;18.52;100838.78;5045524;28;20382;-60
2022/08/25 06:20:50;;;;;;;9.98;5.50;;;;;;;46.67;18.17;100834.78;5044620;28;20433;-60
2022/08/25 06:23:18;;;;;;;11.15;5.50;;;;;;;47.42;17.43;100830.34;5050581;28;20381;-60
2022/08/25 06:25:49;;;;;;;12.68;5.85;;;;;;;48.05;16.87;100826.28;5052079;28;20935;-59
2022/08/25 06:28:15;;;;;;;13.20;5.93;;;;;;;48.64;16.16;100827.66;5052853;28;20388;-59
2022/08/25 06:30:40;;;;;;;9.27;5.75;;;;;;;49.11;15.79;100829.56;5050624;28;20386;-58
2022/08/25 06:33:05;;;;;;;12.50;5.60;;;;;;;49.40;15.83;100826.94;5034898;28;20906;-59
2022/08/25 06:35:31;;;;;;;8.27;5.67;;;;;;;49.85;15.03;100814.31;5052222;28;20377;-59
2022/08/25 06:37:56;;;;;;;13.27;5.45;;;;;;;50.27;14.85;100812.41;5042689;28;20378;-59
2022/08/25 06:40:23;;;;;;;9.73;5.23;;;;;;;50.40;14.21;100812.47;5032072;28;20897;-59
2022/08/25 06:42:48;;;;;;;11.10;4.93;;;;;;;50.84;13.96;100815.75;5031292;28;20402;-59
2022/08/25 06:45:14;;;;;;;11.30;5.22;;;;;;;50.96;13.72;100819.03;5031747;28;20456;-59
2022/08/25 06:47:41;;;;;;;11.00;5.20;;;;;;;51.19;13.46;100815.94;5031247;28;20942;-59
2022/08/25 06:50:07;;;;;;;11.15;5.13;;;;;;;51.26;13.45;100820.59;5031857;28;20394;-59
2022/08/25 06:52:34;;;;;;;11.53;4.80;;;;;;;51.51;13.43;100822.63;5031732;28;20765;-58
2022/08/25 06:55:00;;;;;;;13.10;5.57;;;;;;;51.59;13.35;100818.34;5030948;28;20395;-59
2022/08/25 06:57:25;;;;;;;11.38;4.90;;;;;;;51.13;13.34;100816.94;5031507;28;20389;-59
2022/08/25 06:59:51;;;;;;;11.57;5.13;;;;;;;49.79;14.94;100819.66;5032044;28;20430;-59
2022/08/25 07:02:16;;;;;;;10.90;5.07;;;;;;;51.44;13.52;100826.47;5031769;28;20391;-59
2022/08/25 07:04:42;;;;;;;14.32;5.20;;;;;;;52.10;12.65;100828.03;5032043;28;20390;-58
2022/08/25 07:07:07;;;;;;;15.43;4.83;;;;;;;52.12;12.42;100834.81;5030069;28;20868;-59
2022/08/25 07:09:33;;;;;;;13.70;5.63;;;;;;;52.24;12.62;100818.28;5031327;28;20455;-59
2022/08/25 07:11:58;;;;;;;11.48;4.57;;;;;;;52.36;12.37;100826.72;5030520;28;20409;-60
2022/08/25 07:14:24;;;;;;;8.03;4.50;;;;;;;51.68;12.79;100820.50;5031496;28;20394;-58
2022/08/25 07:16:49;;;;;;;8.27;4.70;;;;;;;51.17;13.39;100821.22;5030892;28;20394;-60
2022/08/25 07:19:19;;;;;;;12.38;4.82;;;;;;;51.13;13.28;100823.38;5030385;28;20386;-60
2022/08/25 07:21:45;;;;;;;13.73;4.70;;;;;;;50.29;14.13;100820.44;5029841;28;20457;-60
2022/08/25 07:24:12;;;;;;;10.10;4.43;;;;;;;49.27;14.74;100828.84;5028826;28;20379;-61
2022/08/25 07:26:41;;;;;;;10.85;4.72;;;;;;;49.24;15.10;100826.91;5028480;28;20483;-59
2022/08/25 07:29:24;;;;;;;11.73;4.25;;;;;;;47.95;15.95;100833.59;5028766;28;20401;-60
2022/08/25 07:31:50;;;;;;;7.77;4.10;;;;;;;46.49;17.33;100820.16;5030102;28;20394;-60
2022/08/25 07:37:03;;;;;;;7.50;4.25;;;;;;;44.43;19.77;100825.09;5027919;28;20769;-60
2022/08/25 07:39:29;;;;;;;13.50;4.80;;;;;;;43.07;20.56;100829.06;5030794;28;20378;-62
2022/08/25 07:41:55;;;;;;;19.02;4.50;;;;;;;42.14;21.93;100831.97;5030208;28;20418;-59
2022/08/25 07:44:22;;;;;;;15.68;4.30;;;;;;;41.27;22.32;100832.13;5029337;28;20391;-60
2022/08/25 07:46:48;;;;;;;8.50;3.63;;;;;;;40.49;23.20;100832.53;5031068;28;20823;-59
2022/08/25 07:49:14;;;;;;;10.82;4.38;;;;;;;39.54;24.55;100831.91;5030211;28;20765;-59
2022/08/25 07:51:40;;;;;;;10.43;4.05;;;;;;;39.32;25.07;100838.19;5030740;28;20900;-59
2022/08/25 07:54:05;;;;;;;11.85;4.20;;;;;;;38.77;25.53;100847.22;5030291;28;20880;-60
2022/08/25 07:56:31;;;;;;;13.45;4.40;;;;;;;38.38;26.04;100837.91;5030496;28;20393;-58
2022/08/25 07:58:56;;;;;;;9.15;4.30;;;;;;;38.21;26.19;100833.50;5030636;28;20409;-59
2022/08/25 08:01:23;;;;;;;10.55;3.70;;;;;;;38.15;25.72;100840.50;5030470;28;20414;-59
2022/08/25 08:03:49;;;;;;;9.57;3.90;;;;;;;37.86;25.99;100837.72;5036880;28;20382;-59
2022/08/25 08:06:18;;;;;;;14.33;4.23;;;;;;;37.64;26.74;100846.59;5040562;28;20398;-59
2022/08/25 08:08:47;;;;;;;11.00;3.83;;;;;;;37.26;27.07;100834.00;5028925;28;20394;-58
2022/08/25 08:11:35;;;;;;;12.20;4.28;;;;;;;37.07;27.42;100837.31;5027985;28;20396;-59
2022/08/25 08:14:02;;;;;;;12.00;3.88;;;;;;;36.82;27.45;100833.78;5030661;28;20436;-58
2022/08/25 08:16:29;;;;;;;15.40;3.60;;;;;;;36.53;26.71;100835.56;5039685;28;20445;-58
2022/08/25 08:18:56;;;;;;;17.92;4.03;;;;;;;36.49;27.49;100829.13;5042008;28;20396;-58
2022/08/25 08:21:33;;;;;;;15.52;3.83;;;;;;;36.14;27.12;100829.50;5049834;28;20424;-59
2022/08/25 08:23:59;;;;;;;11.98;3.92;;;;;;;35.83;27.83;100825.25;5033652;28;20379;-58
2022/08/25 08:26:27;;;;;;;11.23;4.00;;;;;;;35.67;28.63;100822.28;5030512;28;20394;-58
2022/08/25 08:28:53;;;;;;;12.15;4.10;;;;;;;35.46;29.14;100824.28;5040742;28;20396;-60
2022/08/25 08:31:20;;;;;;;16.58;4.55;;;;;;;35.37;28.94;100827.91;5040602;28;20936;-59
2022/08/25 08:33:47;;;;;;;13.35;4.45;;;;;;;35.34;30.04;100817.53;5031004;28;20398;-59
2022/08/25 08:36:13;;;;;;;12.35;4.70;;;;;;;35.52;29.52;100823.72;5030366;28;20877;-57
2022/08/25 08:38:41;;;;;;;14.52;4.20;;;;;;;35.30;28.99;100816.59;5029880;28;20440;-58
2022/08/25 08:44:21;;;;;;;14.68;4.43;;;;;;;34.34;29.05;100818.97;5030151;28;20389;-60
2022/08/25 08:47:01;;;;;;;16.97;4.40;;;;;;;34.17;29.56;100819.81;5030000;28;20397;-60
2022/08/25 08:49:39;;;;;;;15.73;4.40;;;;;;;34.31;30.18;100814.94;5030096;28;20390;-60
2022/08/25 08:52:08;;;;;;;18.63;4.17;;;;;;;33.90;29.82;100813.56;5030305;28;20469;-60
2022/08/25 08:54:38;;;;;;;14.45;4.50;;;;;;;33.68;30.80;100817.31;5028241;28;20906;-60
2022/08/25 08:57:15;;;;;;;17.58;4.57;;;;;;;33.92;30.46;100818.72;5029981;28;20420;-60
2022/08/25 08:59:54;;;;;;;16.70;4.15;;;;;;;34.08;29.63;100817.06;5029692;28;20382;-60
2022/08/25 09:02:45;;;;;;;22.25;4.45;;;;;;;33.89;30.20;100818.25;5029661;28;20382;-60
2022/08/25 09:05:16;;;;;;;17.30;3.90;;;;;;;33.88;29.93;100821.31;5029882;28;20387;-60
2022/08/25 09:07:52;;;;;;;14.85;4.03;;;;;;;33.96;29.87;100826.03;5029845;28;20385;-60
2022/08/25 09:10:19;;;;;;;15.10;3.88;;;;;;;33.87;29.95;100820.53;5029331;28;20390;-60
2022/08/25 09:13:10;;;;;;;19.95;4.13;;;;;;;33.70;30.31;100809.53;5029707;28;20486;-60
2022/08/25 09:18:56;;;;;;;18.58;4.70;;;;;;;33.90;30.81;100819.06;5029462;28;20465;-60
2022/08/25 09:21:29;;;;;;;19.92;4.32;;;;;;;34.10;30.17;100814.81;5029204;28;20461;-60
2022/08/25 09:23:58;;;;;;;24.33;4.20;;;;;;;34.21;29.30;100805.09;5029705;28;20385;-60
2022/08/25 09:27:02;;;;;;;23.25;3.92;;;;;;;34.23;27.12;100804.75;5029322;28;20835;-60
2022/08/25 09:29:46;;;;;;;22.00;3.90;;;;;;;34.25;26.99;100803.31;5025950;28;20394;-61
2022/08/25 09:32:12;;;;;;;16.27;3.45;;;;;;;34.20;27.33;100802.69;5029317;28;20499;-59
2022/08/25 09:34:37;;;;;;;26.42;4.78;;;;;;;34.17;27.55;100795.84;5029340;28;20485;-59
2022/08/25 09:37:03;;;;;;;21.85;4.07;;;;;;;34.48;27.52;100792.06;5029266;28;20379;-60
2022/08/25 09:39:28;;;;;;;27.27;5.30;;;;;;;34.56;27.41;100793.16;5029522;28;20378;-60
2022/08/25 09:41:56;;;;;;;22.60;4.40;;;;;;;34.56;27.73;100790.41;5029454;28;20949;-59
2022/08/25 09:44:24;;;;;;;15.90;3.43;;;;;;;34.14;27.83;100777.28;5029178;28;20772;-58
2022/08/25 09:47:19;;;;;;;14.70;3.55;;;;;;;33.85;27.74;100795.28;5029180;28;20428;-59
2022/08/25 09:49:44;;;;;;;15.80;3.38;;;;;;;33.83;28.30;100785.75;5029487;28;20386;-58
2022/08/25 09:52:22;;;;;;;24.07;4.50;;;;;;;33.98;28.08;100770.66;5029410;28;20421;-58
2022/08/25 09:54:53;;;;;;;20.65;3.85;;;;;;;33.98;28.57;100767.91;5029121;28;20397;-58
2022/08/25 09:57:48;;;;;;;21.40;3.80;;;;;;;33.85;28.38;100769.72;5029506;28;20382;-58
2022/08/25 10:00:17;;;;;;;12.95;3.45;;;;;;;33.80;28.65;100767.97;5029267;28;20414;-58
2022/08/25 10:02:59;;;;;;;18.70;3.88;;;;;;;33.86;29.02;100769.41;5029292;28;20386;-59
2022/08/25 10:05:26;;;;;;;27.92;4.25;;;;;;;34.01;28.68;100767.25;5029579;28;20410;-58
2022/08/25 10:07:57;;;;;;;17.40;3.50;;;;;;;33.91;28.53;100754.69;5031570;28;20406;-58
2022/08/25 10:10:35;;;;;;;15.93;3.80;;;;;;;33.85;27.95;100766.97;5032890;28;20382;-59
2022/08/25 10:13:02;;;;;;;18.10;3.55;;;;;;;33.65;27.75;100774.75;5032669;28;20386;-57
2022/08/25 10:15:35;;;;;;;15.18;3.15;;;;;;;33.62;27.59;100766.31;5032545;28;20429;-60
2022/08/25 10:18:19;;;;;;;18.85;3.53;;;;;;;33.64;27.67;100778.63;5032503;28;20465;-59
2022/08/25 10:21:19;;;;;;;21.38;3.70;;;;;;;33.72;27.44;100780.56;5032703;28;20913;-57
2022/08/25 10:23:53;;;;;;;20.70;3.30;;;;;;;33.64;27.54;100772.31;5032170;28;20477;-58
2022/08/25 10:26:31;;;;;;;15.10;3.90;;;;;;;33.52;26.82;100761.97;5032662;28;20398;-59
2022/08/25 10:29:05;;;;;;;22.30;4.03;;;;;;;33.68;26.73;100773.31;5032678;28;20444;-59
2022/08/25 10:31:55;;;;;;;18.50;3.22;;;;;;;33.63;27.01;100771.50;5032613;28;20378;-59
2022/08/25 10:35:02;;;;;;;19.48;3.35;;;;;;;33.57;27.38;100766.50;5032325;28;20412;-59
2022/08/25 10:37:33;;;;;;;18.42;3.42;;;;;;;33.52;27.12;100759.22;5020224;28;20509;-58
2022/08/25 10:40:11;;;;;;;16.73;3.50;;;;;;;33.61;27.26;100751.78;5032447;28;20384;-59
2022/08/25 10:43:05;;;;;;;18.73;3.65;;;;;;;33.70;27.89;100751.81;5032171;28;20410;-59
2022/08/25 10:45:42;;;;;;;22.17;3.78;;;;;;;33.77;27.98;100743.88;5022805;28;20393;-60
2022/08/25 10:48:09;;;;;;;17.08;3.50;;;;;;;33.78;27.07;100739.16;5031979;28;20469;-60
2022/08/25 10:50:45;;;;;;;29.93;3.30;;;;;;;33.78;25.95;100737.25;5032221;28;20391;-61
2022/08/25 10:53:43;;;;;;;21.08;3.85;;;;;;;33.89;26.09;100741.25;5032389;28;20406;-60
2022/08/25 10:56:13;;;;;;;15.45;3.72;;;;;;;33.97;25.66;100739.59;5032148;28;20401;-60
2022/08/25 10:59:03;;;;;;;22.50;4.32;;;;;;;34.16;25.29;100743.91;5032047;28;20391;-60
2022/08/25 11:02:13;;;;;;;23.88;3.80;;;;;;;34.18;24.12;100747.19;5032146;28;20402;-60
2022/08/25 11:04:52;;;;;;;28.40;3.65;;;;;;;34.33;24.13;100745.84;5025277;28;20417;-60
2022/08/25 11:07:44;;;;;;;17.20;3.57;;;;;;;34.43;23.97;100743.50;5031835;28;20374;-58
2022/08/25 11:10:19;;;;;;;24.02;3.33;;;;;;;34.50;23.42;100739.44;5031630;28;20393;-60
2022/08/25 11:12:51;;;;;;;23.67;3.45;;;;;;;34.52;22.89;100740.72;5031951;28;20397;-60
2022/08/25 11:15:25;;;;;;;21.98;3.60;;;;;;;34.72;22.91;100738.34;5031943;28;20387;-60
2022/08/25 11:18:24;;;;;;;22.00;3.43;;;;;;;34.77;23.09;100738.16;5031363;28;20753;-60
2022/08/25 11:21:11;;;;;;;28.98;3.58;;;;;;;34.90;23.37;100737.13;5026833;28;20914;-62
2022/08/25 11:23:52;;;;;;;16.02;3.53;;;;;;;34.99;23.57;100726.03;5031686;28;20429;-60
2022/08/25 11:26:28;;;;;;;31.15;3.75;;;;;;;34.92;22.81;100726.56;5031607;28;20410;-60
2022/08/25 11:29:05;;;;;;;24.38;3.75;;;;;;;34.63;23.13;100719.13;5031587;28;20809;-59
2022/08/25 11:31:37;;;;;;;21.90;3.90;;;;;;;34.68;24.00;100718.91;5031599;28;20464;-59
2022/08/25 11:36:39;;;;;;;21.20;4.30;;;;;;;34.52;25.93;100712.38;5092064;27;2050359;-60
2022/08/25 11:39:23;;;;;;;14.50;3.65;;;;;;;34.46;26.96;100714.50;5110292;28;20885;-59
2022/08/25 11:42:04;;;;;;;21.83;3.65;;;;;;;34.40;26.80;100702.09;5127970;28;20451;-59
2022/08/25 11:44:51;;;;;;;16.17;4.15;;;;;;;34.45;26.68;100707.41;5127886;28;20375;-60
2022/08/25 11:47:35;;;;;;;17.17;3.78;;;;;;;34.48;26.68;100698.47;5126062;28;20396;-58
2022/08/25 11:50:24;;;;;;;21.13;3.95;;;;;;;34.51;26.63;100700.56;5127884;28;20383;-59